Texas City, Texas
Current Conditions -  °F | °C
As of 2:52 PM on Saturday 20 Dec 2014 (Local Time) from KGLS Reporting Station
Overcast Overcast  
Wind Chill: 54°   Ceiling: 1200
Heat Index: 54°   Visibility: 10mi
Dew Point: 52°   Wind: 10mph
Humidity: 93%   Direction: 10°N
Pressure: 30.15"   Gusts: NA
Location:  29.39°N, 94.92°W
Report Text: KGLS 202052Z 01009KT 10SM OVC012 12/11 A3015 RMK AO1 SLP208 T01220111 55015
Loading
Personal Weather Stations






























Interactive Weather Map New forecast layout! Learn more

10-Day Weather Forecast

Advertisements
Track Severe Weather on mobile